sensor_id;sensor_type;location;lat;lon;timestamp;temperature;humidity
18412;DHT22;27097;51.738;19.472;2022-07-29T00:01:54;26.10;45.30
18412;DHT22;27097;51.738;19.472;2022-07-29T00:04:21;26.10;45.40
18412;DHT22;27097;51.738;19.472;2022-07-29T00:06:49;26.10;45.40
18412;DHT22;27097;51.738;19.472;2022-07-29T00:09:17;26.10;45.40
18412;DHT22;27097;51.738;19.472;2022-07-29T00:11:44;26.10;45.50
18412;DHT22;27097;51.738;19.472;2022-07-29T00:14:12;26.00;45.40
18412;DHT22;27097;51.738;19.472;2022-07-29T00:16:39;26.10;45.40
18412;DHT22;27097;51.738;19.472;2022-07-29T00:19:06;26.00;45.30
18412;DHT22;27097;51.738;19.472;2022-07-29T00:21:33;26.10;45.30
18412;DHT22;27097;51.738;19.472;2022-07-29T00:24:00;26.10;45.10
18412;DHT22;27097;51.738;19.472;2022-07-29T00:26:28;26.10;44.70
18412;DHT22;27097;51.738;19.472;2022-07-29T00:28:58;26.10;45.00
18412;DHT22;27097;51.738;19.472;2022-07-29T00:31:25;26.10;44.70
18412;DHT22;27097;51.738;19.472;2022-07-29T00:33:52;26.00;44.90
18412;DHT22;27097;51.738;19.472;2022-07-29T00:36:19;26.00;45.10
18412;DHT22;27097;51.738;19.472;2022-07-29T00:38:46;26.10;45.20
18412;DHT22;27097;51.738;19.472;2022-07-29T00:41:13;26.00;45.10
18412;DHT22;27097;51.738;19.472;2022-07-29T00:43:42;26.10;45.20
18412;DHT22;27097;51.738;19.472;2022-07-29T00:46:09;26.00;45.00
18412;DHT22;27097;51.738;19.472;2022-07-29T00:48:36;26.00;45.70
18412;DHT22;27097;51.738;19.472;2022-07-29T00:51:04;26.00;45.00
18412;DHT22;27097;51.738;19.472;2022-07-29T00:53:35;26.00;45.00
18412;DHT22;27097;51.738;19.472;2022-07-29T00:56:03;26.00;45.00
18412;DHT22;27097;51.738;19.472;2022-07-29T00:58:31;26.00;45.00
18412;DHT22;27097;51.738;19.472;2022-07-29T01:01:00;26.00;45.10
18412;DHT22;27097;51.738;19.472;2022-07-29T01:03:27;26.00;45.10
18412;DHT22;27097;51.738;19.472;2022-07-29T01:05:54;26.00;45.30
18412;DHT22;27097;51.738;19.472;2022-07-29T01:08:21;26.00;45.20
18412;DHT22;27097;51.738;19.472;2022-07-29T01:10:51;26.00;45.40
18412;DHT22;27097;51.738;19.472;2022-07-29T01:13:19;25.90;45.30
18412;DHT22;27097;51.738;19.472;2022-07-29T01:15:51;26.00;45.30
18412;DHT22;27097;51.738;19.472;2022-07-29T01:18:30;26.00;45.30
18412;DHT22;27097;51.738;19.472;2022-07-29T01:21:19;26.00;45.40
18412;DHT22;27097;51.738;19.472;2022-07-29T01:26:42;26.00;45.50
18412;DHT22;27097;51.738;19.472;2022-07-29T01:29:17;25.90;45.40
18412;DHT22;27097;51.738;19.472;2022-07-29T01:31:48;25.90;45.30
18412;DHT22;27097;51.738;19.472;2022-07-29T01:34:28;26.00;45.40
18412;DHT22;27097;51.738;19.472;2022-07-29T01:37:03;25.90;45.40
18412;DHT22;27097;51.738;19.472;2022-07-29T01:39:33;25.90;45.50
18412;DHT22;27097;51.738;19.472;2022-07-29T01:42:15;25.90;45.40
18412;DHT22;27097;51.738;19.472;2022-07-29T01:44:50;25.90;45.50
18412;DHT22;27097;51.738;19.472;2022-07-29T01:47:21;25.90;45.50
18412;DHT22;27097;51.738;19.472;2022-07-29T01:49:54;25.90;45.60
18412;DHT22;27097;51.738;19.472;2022-07-29T01:52:27;25.90;45.60
18412;DHT22;27097;51.738;19.472;2022-07-29T01:54:59;25.90;45.60
18412;DHT22;27097;51.738;19.472;2022-07-29T01:57:31;25.90;45.60
18412;DHT22;27097;51.738;19.472;2022-07-29T02:00:01;25.90;45.50
18412;DHT22;27097;51.738;19.472;2022-07-29T02:02:30;25.90;45.40
18412;DHT22;27097;51.738;19.472;2022-07-29T02:04:59;25.90;45.40
18412;DHT22;27097;51.738;19.472;2022-07-29T02:07:29;25.90;45.40
18412;DHT22;27097;51.738;19.472;2022-07-29T02:09:58;25.90;45.40
18412;DHT22;27097;51.738;19.472;2022-07-29T02:12:26;25.90;45.40
18412;DHT22;27097;51.738;19.472;2022-07-29T02:14:56;25.90;45.40
18412;DHT22;27097;51.738;19.472;2022-07-29T02:17:31;25.90;45.40
18412;DHT22;27097;51.738;19.472;2022-07-29T02:20:02;25.90;45.50
18412;DHT22;27097;51.738;19.472;2022-07-29T02:22:31;25.90;45.60
18412;DHT22;27097;51.738;19.472;2022-07-29T02:25:01;25.90;45.50
18412;DHT22;27097;51.738;19.472;2022-07-29T02:27:28;25.90;45.60
18412;DHT22;27097;51.738;19.472;2022-07-29T02:29:57;25.90;45.80
18412;DHT22;27097;51.738;19.472;2022-07-29T02:32:27;25.80;45.70
18412;DHT22;27097;51.738;19.472;2022-07-29T02:34:56;25.90;46.10
18412;DHT22;27097;51.738;19.472;2022-07-29T02:37:24;25.90;45.60
18412;DHT22;27097;51.738;19.472;2022-07-29T02:39:53;25.80;45.60
18412;DHT22;27097;51.738;19.472;2022-07-29T02:42:21;25.80;45.80
18412;DHT22;27097;51.738;19.472;2022-07-29T02:44:49;25.80;46.10
18412;DHT22;27097;51.738;19.472;2022-07-29T02:47:20;25.80;46.00
18412;DHT22;27097;51.738;19.472;2022-07-29T02:49:55;25.80;46.10
18412;DHT22;27097;51.738;19.472;2022-07-29T02:52:26;25.80;46.00
18412;DHT22;27097;51.738;19.472;2022-07-29T02:55:00;25.80;46.10
18412;DHT22;27097;51.738;19.472;2022-07-29T02:57:31;25.70;46.00
18412;DHT22;27097;51.738;19.472;2022-07-29T03:00:03;25.70;45.80
18412;DHT22;27097;51.738;19.472;2022-07-29T03:02:35;25.70;45.90
18412;DHT22;27097;51.738;19.472;2022-07-29T03:05:06;25.70;45.70
18412;DHT22;27097;51.738;19.472;2022-07-29T03:07:35;25.70;46.00
18412;DHT22;27097;51.738;19.472;2022-07-29T03:10:04;25.70;46.50
18412;DHT22;27097;51.738;19.472;2022-07-29T03:12:31;25.70;45.80
18412;DHT22;27097;51.738;19.472;2022-07-29T03:14:59;25.70;45.70
18412;DHT22;27097;51.738;19.472;2022-07-29T03:17:27;25.70;45.90
18412;DHT22;27097;51.738;19.472;2022-07-29T03:19:55;25.70;45.90
18412;DHT22;27097;51.738;19.472;2022-07-29T03:22:24;25.70;46.00
18412;DHT22;27097;51.738;19.472;2022-07-29T03:24:51;25.70;46.00
18412;DHT22;27097;51.738;19.472;2022-07-29T03:27:18;25.70;45.80
18412;DHT22;27097;51.738;19.472;2022-07-29T03:29:46;25.70;45.60
18412;DHT22;27097;51.738;19.472;2022-07-29T03:32:13;25.70;45.70
18412;DHT22;27097;51.738;19.472;2022-07-29T03:34:40;25.70;46.10
18412;DHT22;27097;51.738;19.472;2022-07-29T03:37:07;25.70;46.00
18412;DHT22;27097;51.738;19.472;2022-07-29T03:39:39;25.70;46.20
18412;DHT22;27097;51.738;19.472;2022-07-29T03:42:09;25.70;46.10
18412;DHT22;27097;51.738;19.472;2022-07-29T03:44:37;25.70;46.10
18412;DHT22;27097;51.738;19.472;2022-07-29T03:47:06;25.70;46.10
18412;DHT22;27097;51.738;19.472;2022-07-29T03:49:36;25.70;46.10
18412;DHT22;27097;51.738;19.472;2022-07-29T03:52:04;25.70;46.10
18412;DHT22;27097;51.738;19.472;2022-07-29T03:54:32;25.70;46.40
18412;DHT22;27097;51.738;19.472;2022-07-29T03:57:02;25.70;46.30
18412;DHT22;27097;51.738;19.472;2022-07-29T03:59:32;25.70;46.00
18412;DHT22;27097;51.738;19.472;2022-07-29T04:02:00;25.70;46.40
18412;DHT22;27097;51.738;19.472;2022-07-29T04:04:27;25.60;46.30
18412;DHT22;27097;51.738;19.472;2022-07-29T04:06:55;25.70;46.50
18412;DHT22;27097;51.738;19.472;2022-07-29T04:09:22;25.70;46.40
18412;DHT22;27097;51.738;19.472;2022-07-29T04:11:49;25.60;46.50
18412;DHT22;27097;51.738;19.472;2022-07-29T04:14:18;25.70;46.50
18412;DHT22;27097;51.738;19.472;2022-07-29T04:16:46;25.60;46.50
18412;DHT22;27097;51.738;19.472;2022-07-29T04:19:13;25.70;46.40
18412;DHT22;27097;51.738;19.472;2022-07-29T04:21:41;25.70;46.50
18412;DHT22;27097;51.738;19.472;2022-07-29T04:24:09;25.70;46.40
18412;DHT22;27097;51.738;19.472;2022-07-29T04:26:36;25.60;46.50
18412;DHT22;27097;51.738;19.472;2022-07-29T04:29:03;25.70;46.00
18412;DHT22;27097;51.738;19.472;2022-07-29T04:31:31;25.70;46.40
18412;DHT22;27097;51.738;19.472;2022-07-29T04:33:58;25.70;46.50
18412;DHT22;27097;51.738;19.472;2022-07-29T04:36:25;25.60;46.20
18412;DHT22;27097;51.738;19.472;2022-07-29T04:38:52;25.70;46.40
18412;DHT22;27097;51.738;19.472;2022-07-29T04:41:19;25.70;46.20
18412;DHT22;27097;51.738;19.472;2022-07-29T04:43:46;25.70;46.60
18412;DHT22;27097;51.738;19.472;2022-07-29T04:46:13;25.70;46.60
18412;DHT22;27097;51.738;19.472;2022-07-29T04:48:43;25.70;46.50
18412;DHT22;27097;51.738;19.472;2022-07-29T04:51:11;25.70;46.50
18412;DHT22;27097;51.738;19.472;2022-07-29T04:53:38;25.70;46.60
18412;DHT22;27097;51.738;19.472;2022-07-29T04:56:05;25.70;47.00
18412;DHT22;27097;51.738;19.472;2022-07-29T04:58:34;25.70;46.50
18412;DHT22;27097;51.738;19.472;2022-07-29T05:01:01;25.70;46.80
18412;DHT22;27097;51.738;19.472;2022-07-29T05:03:28;25.70;46.90
18412;DHT22;27097;51.738;19.472;2022-07-29T05:05:57;25.70;47.00
18412;DHT22;27097;51.738;19.472;2022-07-29T05:08:24;25.70;47.00
18412;DHT22;27097;51.738;19.472;2022-07-29T05:10:51;25.70;46.80
18412;DHT22;27097;51.738;19.472;2022-07-29T05:13:18;25.80;47.80
18412;DHT22;27097;51.738;19.472;2022-07-29T05:15:45;25.70;46.70
18412;DHT22;27097;51.738;19.472;2022-07-29T05:18:12;25.80;47.10
18412;DHT22;27097;51.738;19.472;2022-07-29T05:20:39;25.80;47.20
18412;DHT22;27097;51.738;19.472;2022-07-29T05:23:08;25.80;47.20
18412;DHT22;27097;51.738;19.472;2022-07-29T05:25:38;25.80;45.90
18412;DHT22;27097;51.738;19.472;2022-07-29T05:28:05;25.80;46.10
18412;DHT22;27097;51.738;19.472;2022-07-29T05:30:32;25.90;46.90
18412;DHT22;27097;51.738;19.472;2022-07-29T05:32:59;25.90;46.80
18412;DHT22;27097;51.738;19.472;2022-07-29T05:35:26;25.90;46.80
18412;DHT22;27097;51.738;19.472;2022-07-29T05:37:53;25.90;46.60
18412;DHT22;27097;51.738;19.472;2022-07-29T05:40:22;25.90;46.80
18412;DHT22;27097;51.738;19.472;2022-07-29T05:42:49;25.90;46.30
18412;DHT22;27097;51.738;19.472;2022-07-29T05:45:16;25.90;46.40
18412;DHT22;27097;51.738;19.472;2022-07-29T05:47:43;25.90;46.70
18412;DHT22;27097;51.738;19.472;2022-07-29T05:50:11;25.90;47.00
18412;DHT22;27097;51.738;19.472;2022-07-29T05:52:38;25.90;48.30
18412;DHT22;27097;51.738;19.472;2022-07-29T05:55:06;25.90;46.90
18412;DHT22;27097;51.738;19.472;2022-07-29T05:57:34;25.90;47.40
18412;DHT22;27097;51.738;19.472;2022-07-29T06:00:01;25.90;47.30
18412;DHT22;27097;51.738;19.472;2022-07-29T06:02:29;25.90;47.30
18412;DHT22;27097;51.738;19.472;2022-07-29T06:04:56;26.00;47.10
18412;DHT22;27097;51.738;19.472;2022-07-29T06:07:23;26.00;47.40
18412;DHT22;27097;51.738;19.472;2022-07-29T06:09:50;26.00;47.50
18412;DHT22;27097;51.738;19.472;2022-07-29T06:12:17;26.00;47.20
18412;DHT22;27097;51.738;19.472;2022-07-29T06:14:46;26.00;47.20
18412;DHT22;27097;51.738;19.472;2022-07-29T06:17:13;26.00;47.10
18412;DHT22;27097;51.738;19.472;2022-07-29T06:19:42;26.00;47.10
18412;DHT22;27097;51.738;19.472;2022-07-29T06:22:09;26.00;46.80
18412;DHT22;27097;51.738;19.472;2022-07-29T06:24:36;26.00;47.10
18412;DHT22;27097;51.738;19.472;2022-07-29T06:27:07;26.00;46.90
18412;DHT22;27097;51.738;19.472;2022-07-29T06:29:35;26.00;46.90
18412;DHT22;27097;51.738;19.472;2022-07-29T06:32:04;26.00;47.30
18412;DHT22;27097;51.738;19.472;2022-07-29T06:34:31;26.00;46.90
18412;DHT22;27097;51.738;19.472;2022-07-29T06:36:58;26.00;46.80
18412;DHT22;27097;51.738;19.472;2022-07-29T06:39:25;26.10;46.90
18412;DHT22;27097;51.738;19.472;2022-07-29T06:41:53;26.00;46.80
18412;DHT22;27097;51.738;19.472;2022-07-29T06:44:20;26.00;46.80
18412;DHT22;27097;51.738;19.472;2022-07-29T06:46:47;26.00;46.90
18412;DHT22;27097;51.738;19.472;2022-07-29T06:49:17;26.10;46.70
18412;DHT22;27097;51.738;19.472;2022-07-29T06:51:44;26.10;46.70
18412;DHT22;27097;51.738;19.472;2022-07-29T06:54:11;26.10;46.80
18412;DHT22;27097;51.738;19.472;2022-07-29T06:56:38;26.10;46.90
18412;DHT22;27097;51.738;19.472;2022-07-29T06:59:08;26.10;46.80
18412;DHT22;27097;51.738;19.472;2022-07-29T07:01:35;26.10;46.90
18412;DHT22;27097;51.738;19.472;2022-07-29T07:04:03;26.10;47.00
18412;DHT22;27097;51.738;19.472;2022-07-29T07:06:32;26.10;46.70
18412;DHT22;27097;51.738;19.472;2022-07-29T07:08:59;26.10;46.60
18412;DHT22;27097;51.738;19.472;2022-07-29T07:11:26;26.10;46.70
18412;DHT22;27097;51.738;19.472;2022-07-29T07:13:53;26.10;46.30
18412;DHT22;27097;51.738;19.472;2022-07-29T07:16:20;26.10;46.40
18412;DHT22;27097;51.738;19.472;2022-07-29T07:18:48;26.10;46.30
18412;DHT22;27097;51.738;19.472;2022-07-29T07:21:15;26.10;46.20
18412;DHT22;27097;51.738;19.472;2022-07-29T07:23:43;26.10;46.50
18412;DHT22;27097;51.738;19.472;2022-07-29T07:26:10;26.10;46.50
18412;DHT22;27097;51.738;19.472;2022-07-29T07:28:37;26.20;46.50
18412;DHT22;27097;51.738;19.472;2022-07-29T07:31:05;26.20;46.50
18412;DHT22;27097;51.738;19.472;2022-07-29T07:33:32;26.20;46.40
18412;DHT22;27097;51.738;19.472;2022-07-29T07:35:59;26.20;46.30
18412;DHT22;27097;51.738;19.472;2022-07-29T07:38:26;26.20;46.30
18412;DHT22;27097;51.738;19.472;2022-07-29T07:40:55;26.20;46.20
18412;DHT22;27097;51.738;19.472;2022-07-29T07:43:22;26.20;46.20
18412;DHT22;27097;51.738;19.472;2022-07-29T07:45:49;26.20;46.20
18412;DHT22;27097;51.738;19.472;2022-07-29T07:48:16;26.30;46.20
18412;DHT22;27097;51.738;19.472;2022-07-29T07:50:43;26.30;46.30
18412;DHT22;27097;51.738;19.472;2022-07-29T07:53:10;26.30;45.90
18412;DHT22;27097;51.738;19.472;2022-07-29T07:55:40;26.30;46.10
18412;DHT22;27097;51.738;19.472;2022-07-29T07:58:08;26.30;46.00
18412;DHT22;27097;51.738;19.472;2022-07-29T08:00:35;26.30;45.80
18412;DHT22;27097;51.738;19.472;2022-07-29T08:03:03;26.30;45.80
18412;DHT22;27097;51.738;19.472;2022-07-29T08:05:30;26.30;45.30
18412;DHT22;27097;51.738;19.472;2022-07-29T08:07:57;26.30;45.40
18412;DHT22;27097;51.738;19.472;2022-07-29T08:10:25;26.30;45.70
18412;DHT22;27097;51.738;19.472;2022-07-29T08:13:10;26.30;45.50
18412;DHT22;27097;51.738;19.472;2022-07-29T08:15:39;26.40;45.60
18412;DHT22;27097;51.738;19.472;2022-07-29T08:18:08;26.40;45.50
18412;DHT22;27097;51.738;19.472;2022-07-29T08:20:36;26.30;45.50
18412;DHT22;27097;51.738;19.472;2022-07-29T08:23:05;26.30;45.60
18412;DHT22;27097;51.738;19.472;2022-07-29T08:25:34;26.40;45.40
18412;DHT22;27097;51.738;19.472;2022-07-29T08:28:02;26.40;45.80
18412;DHT22;27097;51.738;19.472;2022-07-29T08:30:30;26.30;45.60
18412;DHT22;27097;51.738;19.472;2022-07-29T08:32:58;26.30;45.90
18412;DHT22;27097;51.738;19.472;2022-07-29T08:35:25;26.30;45.90
18412;DHT22;27097;51.738;19.472;2022-07-29T08:37:53;26.30;45.60
18412;DHT22;27097;51.738;19.472;2022-07-29T08:40:20;26.30;45.90
18412;DHT22;27097;51.738;19.472;2022-07-29T08:42:49;26.30;45.70
18412;DHT22;27097;51.738;19.472;2022-07-29T08:45:16;26.30;45.90
18412;DHT22;27097;51.738;19.472;2022-07-29T08:47:45;26.30;45.70
18412;DHT22;27097;51.738;19.472;2022-07-29T08:50:12;26.30;45.60
18412;DHT22;27097;51.738;19.472;2022-07-29T08:52:40;26.30;45.60
18412;DHT22;27097;51.738;19.472;2022-07-29T08:55:10;26.30;45.60
18412;DHT22;27097;51.738;19.472;2022-07-29T08:57:39;26.30;45.60
18412;DHT22;27097;51.738;19.472;2022-07-29T09:00:07;26.30;45.40
18412;DHT22;27097;51.738;19.472;2022-07-29T09:02:39;26.40;45.50
18412;DHT22;27097;51.738;19.472;2022-07-29T09:05:08;26.40;45.60
18412;DHT22;27097;51.738;19.472;2022-07-29T09:07:36;26.40;45.60
18412;DHT22;27097;51.738;19.472;2022-07-29T09:10:05;26.40;45.40
18412;DHT22;27097;51.738;19.472;2022-07-29T09:12:32;26.40;45.50
18412;DHT22;27097;51.738;19.472;2022-07-29T09:14:59;26.40;45.70
18412;DHT22;27097;51.738;19.472;2022-07-29T09:17:43;26.40;45.40
18412;DHT22;27097;51.738;19.472;2022-07-29T09:20:13;26.40;45.60
18412;DHT22;27097;51.738;19.472;2022-07-29T09:22:41;26.50;46.10
18412;DHT22;27097;51.738;19.472;2022-07-29T09:25:08;26.50;45.50
18412;DHT22;27097;51.738;19.472;2022-07-29T09:27:38;26.50;45.50
18412;DHT22;27097;51.738;19.472;2022-07-29T09:30:07;26.50;45.50
18412;DHT22;27097;51.738;19.472;2022-07-29T09:32:54;26.50;45.40
18412;DHT22;27097;51.738;19.472;2022-07-29T09:35:24;26.50;45.30
18412;DHT22;27097;51.738;19.472;2022-07-29T09:37:52;26.50;45.30
18412;DHT22;27097;51.738;19.472;2022-07-29T09:40:20;26.50;45.30
18412;DHT22;27097;51.738;19.472;2022-07-29T09:42:48;26.50;45.00
18412;DHT22;27097;51.738;19.472;2022-07-29T09:45:27;26.50;45.10
18412;DHT22;27097;51.738;19.472;2022-07-29T09:47:58;26.50;45.10
18412;DHT22;27097;51.738;19.472;2022-07-29T09:50:40;26.50;44.80
18412;DHT22;27097;51.738;19.472;2022-07-29T09:53:07;26.50;45.00
18412;DHT22;27097;51.738;19.472;2022-07-29T09:55:46;26.50;45.00
18412;DHT22;27097;51.738;19.472;2022-07-29T09:58:17;26.50;44.90
18412;DHT22;27097;51.738;19.472;2022-07-29T10:00:46;26.50;45.10
18412;DHT22;27097;51.738;19.472;2022-07-29T10:03:13;26.50;45.20
18412;DHT22;27097;51.738;19.472;2022-07-29T10:05:44;26.50;45.30
18412;DHT22;27097;51.738;19.472;2022-07-29T10:08:11;26.50;45.10
18412;DHT22;27097;51.738;19.472;2022-07-29T10:10:41;26.50;45.30
18412;DHT22;27097;51.738;19.472;2022-07-29T10:13:10;26.50;45.90
18412;DHT22;27097;51.738;19.472;2022-07-29T10:15:39;26.50;45.30
18412;DHT22;27097;51.738;19.472;2022-07-29T10:18:09;26.50;45.10
18412;DHT22;27097;51.738;19.472;2022-07-29T10:20:37;26.50;45.00
18412;DHT22;27097;51.738;19.472;2022-07-29T10:23:06;26.50;45.00
18412;DHT22;27097;51.738;19.472;2022-07-29T10:25:33;26.60;45.00
18412;DHT22;27097;51.738;19.472;2022-07-29T10:28:00;26.60;45.20
18412;DHT22;27097;51.738;19.472;2022-07-29T10:30:28;26.60;45.10
18412;DHT22;27097;51.738;19.472;2022-07-29T10:33:13;26.60;45.20
18412;DHT22;27097;51.738;19.472;2022-07-29T10:35:59;26.60;45.20
18412;DHT22;27097;51.738;19.472;2022-07-29T10:38:53;26.60;45.30
18412;DHT22;27097;51.738;19.472;2022-07-29T10:41:43;26.60;45.20
18412;DHT22;27097;51.738;19.472;2022-07-29T10:44:16;26.60;45.20
18412;DHT22;27097;51.738;19.472;2022-07-29T10:46:44;26.60;45.10
18412;DHT22;27097;51.738;19.472;2022-07-29T10:49:12;26.60;45.20
18412;DHT22;27097;51.738;19.472;2022-07-29T10:51:58;26.60;45.30
18412;DHT22;27097;51.738;19.472;2022-07-29T10:54:43;26.60;45.20
18412;DHT22;27097;51.738;19.472;2022-07-29T10:57:19;26.60;44.90
18412;DHT22;27097;51.738;19.472;2022-07-29T10:59:47;26.60;45.40
18412;DHT22;27097;51.738;19.472;2022-07-29T11:02:40;26.60;45.70
18412;DHT22;27097;51.738;19.472;2022-07-29T11:05:08;26.60;45.60
18412;DHT22;27097;51.738;19.472;2022-07-29T11:07:37;26.60;45.40
18412;DHT22;27097;51.738;19.472;2022-07-29T11:10:22;26.60;44.80
18412;DHT22;27097;51.738;19.472;2022-07-29T11:12:50;26.60;45.70
18412;DHT22;27097;51.738;19.472;2022-07-29T11:15:19;26.60;46.10
18412;DHT22;27097;51.738;19.472;2022-07-29T11:18:06;26.60;45.60
18412;DHT22;27097;51.738;19.472;2022-07-29T11:20:37;26.60;45.90
18412;DHT22;27097;51.738;19.472;2022-07-29T11:23:22;26.60;46.20
18412;DHT22;27097;51.738;19.472;2022-07-29T11:26:20;26.60;46.30
18412;DHT22;27097;51.738;19.472;2022-07-29T11:28:51;26.60;46.30
18412;DHT22;27097;51.738;19.472;2022-07-29T11:31:32;26.60;46.30
18412;DHT22;27097;51.738;19.472;2022-07-29T11:34:20;26.60;46.00
18412;DHT22;27097;51.738;19.472;2022-07-29T11:37:22;26.60;46.20
18412;DHT22;27097;51.738;19.472;2022-07-29T11:40:12;26.70;46.20
18412;DHT22;27097;51.738;19.472;2022-07-29T11:42:45;26.60;46.20
18412;DHT22;27097;51.738;19.472;2022-07-29T11:45:24;26.60;46.50
18412;DHT22;27097;51.738;19.472;2022-07-29T11:47:56;26.60;46.40
18412;DHT22;27097;51.738;19.472;2022-07-29T11:50:33;26.70;46.50
18412;DHT22;27097;51.738;19.472;2022-07-29T11:53:01;26.70;46.00
18412;DHT22;27097;51.738;19.472;2022-07-29T11:55:29;26.70;44.70
18412;DHT22;27097;51.738;19.472;2022-07-29T11:58:00;26.70;46.00
18412;DHT22;27097;51.738;19.472;2022-07-29T12:00:30;26.80;46.20
18412;DHT22;27097;51.738;19.472;2022-07-29T12:02:58;26.70;45.90
18412;DHT22;27097;51.738;19.472;2022-07-29T12:05:34;26.70;45.90
18412;DHT22;27097;51.738;19.472;2022-07-29T12:08:10;26.80;46.60
18412;DHT22;27097;51.738;19.472;2022-07-29T12:10:38;26.80;46.60
18412;DHT22;27097;51.738;19.472;2022-07-29T12:13:07;26.70;46.60
18412;DHT22;27097;51.738;19.472;2022-07-29T12:15:35;26.70;46.80
18412;DHT22;27097;51.738;19.472;2022-07-29T12:18:17;26.70;46.80
18412;DHT22;27097;51.738;19.472;2022-07-29T12:20:46;26.70;46.80
18412;DHT22;27097;51.738;19.472;2022-07-29T12:23:14;26.70;46.80
18412;DHT22;27097;51.738;19.472;2022-07-29T12:25:43;26.70;46.70
18412;DHT22;27097;51.738;19.472;2022-07-29T12:28:13;26.70;46.50
18412;DHT22;27097;51.738;19.472;2022-07-29T12:30:45;26.70;47.10
18412;DHT22;27097;51.738;19.472;2022-07-29T12:33:17;26.70;46.30
18412;DHT22;27097;51.738;19.472;2022-07-29T12:35:47;26.70;46.50
18412;DHT22;27097;51.738;19.472;2022-07-29T12:38:15;26.70;46.40
18412;DHT22;27097;51.738;19.472;2022-07-29T12:40:44;26.70;46.20
18412;DHT22;27097;51.738;19.472;2022-07-29T12:43:14;26.70;46.60
18412;DHT22;27097;51.738;19.472;2022-07-29T12:45:44;26.70;46.80
18412;DHT22;27097;51.738;19.472;2022-07-29T12:48:11;26.70;46.60
18412;DHT22;27097;51.738;19.472;2022-07-29T12:50:56;26.70;46.40
18412;DHT22;27097;51.738;19.472;2022-07-29T12:53:23;26.70;46.50
18412;DHT22;27097;51.738;19.472;2022-07-29T12:55:51;26.70;46.60
18412;DHT22;27097;51.738;19.472;2022-07-29T12:58:28;26.70;46.80
18412;DHT22;27097;51.738;19.472;2022-07-29T13:01:00;26.70;46.30
18412;DHT22;27097;51.738;19.472;2022-07-29T13:03:28;26.70;46.90
18412;DHT22;27097;51.738;19.472;2022-07-29T13:05:55;26.70;46.60
18412;DHT22;27097;51.738;19.472;2022-07-29T13:08:22;26.70;46.80
18412;DHT22;27097;51.738;19.472;2022-07-29T13:10:49;26.70;47.10
18412;DHT22;27097;51.738;19.472;2022-07-29T13:13:16;26.70;47.10
18412;DHT22;27097;51.738;19.472;2022-07-29T13:15:45;26.70;47.00
18412;DHT22;27097;51.738;19.472;2022-07-29T13:18:37;26.70;46.60
18412;DHT22;27097;51.738;19.472;2022-07-29T13:21:14;26.70;46.90
18412;DHT22;27097;51.738;19.472;2022-07-29T13:23:42;26.70;47.60
18412;DHT22;27097;51.738;19.472;2022-07-29T13:26:10;26.70;47.30
18412;DHT22;27097;51.738;19.472;2022-07-29T13:28:37;26.80;47.10
18412;DHT22;27097;51.738;19.472;2022-07-29T13:31:06;26.70;47.10
18412;DHT22;27097;51.738;19.472;2022-07-29T13:33:33;26.80;47.30
18412;DHT22;27097;51.738;19.472;2022-07-29T13:36:00;26.70;47.30
18412;DHT22;27097;51.738;19.472;2022-07-29T13:38:27;26.70;47.20
18412;DHT22;27097;51.738;19.472;2022-07-29T13:40:54;26.70;47.50
18412;DHT22;27097;51.738;19.472;2022-07-29T13:43:21;26.70;47.80
18412;DHT22;27097;51.738;19.472;2022-07-29T13:45:48;26.70;47.30
18412;DHT22;27097;51.738;19.472;2022-07-29T13:48:17;26.80;47.20
18412;DHT22;27097;51.738;19.472;2022-07-29T13:50:44;26.80;47.20
18412;DHT22;27097;51.738;19.472;2022-07-29T13:53:12;26.80;47.00
18412;DHT22;27097;51.738;19.472;2022-07-29T13:55:39;26.80;47.20
18412;DHT22;27097;51.738;19.472;2022-07-29T13:58:06;26.80;48.00
18412;DHT22;27097;51.738;19.472;2022-07-29T14:00:33;26.80;47.90
18412;DHT22;27097;51.738;19.472;2022-07-29T14:03:00;26.80;47.30
18412;DHT22;27097;51.738;19.472;2022-07-29T14:05:28;26.80;47.40
18412;DHT22;27097;51.738;19.472;2022-07-29T14:07:55;26.80;47.60
18412;DHT22;27097;51.738;19.472;2022-07-29T14:10:22;26.80;47.80
18412;DHT22;27097;51.738;19.472;2022-07-29T14:12:50;26.80;47.90
18412;DHT22;27097;51.738;19.472;2022-07-29T14:15:17;26.80;48.20
18412;DHT22;27097;51.738;19.472;2022-07-29T14:17:44;26.80;48.20
18412;DHT22;27097;51.738;19.472;2022-07-29T14:20:11;26.70;48.10
18412;DHT22;27097;51.738;19.472;2022-07-29T14:22:39;26.80;47.70
18412;DHT22;27097;51.738;19.472;2022-07-29T14:25:07;26.80;48.10
18412;DHT22;27097;51.738;19.472;2022-07-29T14:27:34;26.80;48.40
18412;DHT22;27097;51.738;19.472;2022-07-29T14:30:01;26.80;48.40
18412;DHT22;27097;51.738;19.472;2022-07-29T14:32:28;26.70;48.10
18412;DHT22;27097;51.738;19.472;2022-07-29T14:34:55;26.70;48.10
18412;DHT22;27097;51.738;19.472;2022-07-29T14:37:22;26.80;48.20
18412;DHT22;27097;51.738;19.472;2022-07-29T14:39:51;26.70;48.00
18412;DHT22;27097;51.738;19.472;2022-07-29T14:42:19;26.70;48.30
18412;DHT22;27097;51.738;19.472;2022-07-29T14:44:46;26.70;47.90
18412;DHT22;27097;51.738;19.472;2022-07-29T14:47:14;26.70;48.30
18412;DHT22;27097;51.738;19.472;2022-07-29T14:49:41;26.70;48.30
18412;DHT22;27097;51.738;19.472;2022-07-29T14:52:08;26.70;48.50
18412;DHT22;27097;51.738;19.472;2022-07-29T14:54:35;26.70;48.30
18412;DHT22;27097;51.738;19.472;2022-07-29T14:57:04;26.70;48.60
18412;DHT22;27097;51.738;19.472;2022-07-29T14:59:31;26.70;48.30
18412;DHT22;27097;51.738;19.472;2022-07-29T15:01:58;26.60;48.30
18412;DHT22;27097;51.738;19.472;2022-07-29T15:04:25;26.70;48.10
18412;DHT22;27097;51.738;19.472;2022-07-29T15:06:52;26.70;48.20
18412;DHT22;27097;51.738;19.472;2022-07-29T15:09:19;26.70;47.70
18412;DHT22;27097;51.738;19.472;2022-07-29T15:11:46;26.70;48.10
18412;DHT22;27097;51.738;19.472;2022-07-29T15:14:14;26.70;48.40
18412;DHT22;27097;51.738;19.472;2022-07-29T15:16:41;26.60;48.30
18412;DHT22;27097;51.738;19.472;2022-07-29T15:19:09;26.70;48.40
18412;DHT22;27097;51.738;19.472;2022-07-29T15:21:36;26.70;48.40
18412;DHT22;27097;51.738;19.472;2022-07-29T15:24:03;26.60;48.10
18412;DHT22;27097;51.738;19.472;2022-07-29T15:26:31;26.60;48.00
18412;DHT22;27097;51.738;19.472;2022-07-29T15:28:59;26.60;47.50
18412;DHT22;27097;51.738;19.472;2022-07-29T15:31:28;26.60;47.40
18412;DHT22;27097;51.738;19.472;2022-07-29T15:33:55;26.60;47.50